Arnott, Wisconsin
Current Conditions -  °F | °C
As of 2:35 PM on Saturday 25 Oct 2014 (Local Time) from KSTE Reporting Station
Clear Clear  
Wind Chill: 15°   Ceiling: Unl
Heat Index: 15°   Visibility: 10mi
Dew Point: -2°   Wind: 14mph
Humidity: 30%   Direction: 300°WNW
Pressure: 29.89"   Gusts: 28mph
Location:  44.5531°N, 89.5186°W
Report Text: KSTE 251935Z AUTO 30012G24KT 10SM CLR 15/M02 A2989 RMK AO2 T01531022
Loading
Personal Weather Stations






























Interactive Weather Map
Tropical Storm Tracking
New forecast layout! Learn more

10-Day Weather Forecast

Advertisements
Track Severe Weather on mobile